sensor_id;sensor_type;location;lat;lon;timestamp;P1;durP1;ratioP1;P2;durP2;ratioP2
66946;SDS011;53853;51.982;5.928;2022-07-29T00:01:13;3.03;;;1.35;;
66946;SDS011;53853;51.982;5.928;2022-07-29T00:03:46;3.95;;;1.52;;
66946;SDS011;53853;51.982;5.928;2022-07-29T00:06:16;3.28;;;1.42;;
66946;SDS011;53853;51.982;5.928;2022-07-29T00:08:46;2.10;;;1.20;;
66946;SDS011;53853;51.982;5.928;2022-07-29T00:11:16;2.83;;;1.30;;
66946;SDS011;53853;51.982;5.928;2022-07-29T00:13:46;2.67;;;1.13;;
66946;SDS011;53853;51.982;5.928;2022-07-29T00:16:16;1.80;;;1.05;;
66946;SDS011;53853;51.982;5.928;2022-07-29T00:18:48;2.90;;;1.33;;
66946;SDS011;53853;51.982;5.928;2022-07-29T00:21:18;3.70;;;1.30;;
66946;SDS011;53853;51.982;5.928;2022-07-29T00:23:48;2.28;;;1.20;;
66946;SDS011;53853;51.982;5.928;2022-07-29T00:26:18;2.17;;;1.17;;
66946;SDS011;53853;51.982;5.928;2022-07-29T00:28:48;4.60;;;1.42;;
66946;SDS011;53853;51.982;5.928;2022-07-29T00:31:17;3.28;;;1.35;;
66946;SDS011;53853;51.982;5.928;2022-07-29T00:33:50;2.38;;;1.27;;
66946;SDS011;53853;51.982;5.928;2022-07-29T00:36:20;2.80;;;1.50;;
66946;SDS011;53853;51.982;5.928;2022-07-29T00:38:47;5.97;;;1.50;;
66946;SDS011;53853;51.982;5.928;2022-07-29T00:41:18;2.50;;;1.20;;
66946;SDS011;53853;51.982;5.928;2022-07-29T00:43:48;4.28;;;1.10;;
66946;SDS011;53853;51.982;5.928;2022-07-29T00:46:18;3.45;;;1.52;;
66946;SDS011;53853;51.982;5.928;2022-07-29T00:48:50;3.22;;;1.20;;
66946;SDS011;53853;51.982;5.928;2022-07-29T00:51:20;4.28;;;1.20;;
66946;SDS011;53853;51.982;5.928;2022-07-29T00:53:50;4.57;;;1.40;;
66946;SDS011;53853;51.982;5.928;2022-07-29T00:56:20;5.07;;;1.70;;
66946;SDS011;53853;51.982;5.928;2022-07-29T00:58:50;2.00;;;0.98;;
66946;SDS011;53853;51.982;5.928;2022-07-29T01:01:20;3.40;;;1.70;;
66946;SDS011;53853;51.982;5.928;2022-07-29T01:03:53;5.50;;;2.05;;
66946;SDS011;53853;51.982;5.928;2022-07-29T01:06:23;3.55;;;1.50;;
66946;SDS011;53853;51.982;5.928;2022-07-29T01:08:53;2.55;;;1.40;;
66946;SDS011;53853;51.982;5.928;2022-07-29T01:11:23;4.82;;;1.27;;
66946;SDS011;53853;51.982;5.928;2022-07-29T01:13:56;2.20;;;1.42;;
66946;SDS011;53853;51.982;5.928;2022-07-29T01:16:28;2.15;;;1.35;;
66946;SDS011;53853;51.982;5.928;2022-07-29T01:19:06;3.17;;;1.10;;
66946;SDS011;53853;51.982;5.928;2022-07-29T01:21:50;5.35;;;1.30;;
66946;SDS011;53853;51.982;5.928;2022-07-29T01:24:29;3.10;;;1.48;;
66946;SDS011;53853;51.982;5.928;2022-07-29T01:27:09;3.28;;;1.63;;
66946;SDS011;53853;51.982;5.928;2022-07-29T01:29:54;3.78;;;1.80;;
66946;SDS011;53853;51.982;5.928;2022-07-29T01:32:26;3.28;;;1.70;;
66946;SDS011;53853;51.982;5.928;2022-07-29T01:35:02;4.25;;;1.73;;
66946;SDS011;53853;51.982;5.928;2022-07-29T01:37:36;3.63;;;1.70;;
66946;SDS011;53853;51.982;5.928;2022-07-29T01:40:12;3.42;;;1.73;;
66946;SDS011;53853;51.982;5.928;2022-07-29T01:42:48;4.35;;;1.95;;
66946;SDS011;53853;51.982;5.928;2022-07-29T01:45:25;4.68;;;1.90;;
66946;SDS011;53853;51.982;5.928;2022-07-29T01:48:02;3.25;;;1.40;;
66946;SDS011;53853;51.982;5.928;2022-07-29T01:50:35;3.47;;;1.33;;
66946;SDS011;53853;51.982;5.928;2022-07-29T01:53:12;3.00;;;1.50;;
66946;SDS011;53853;51.982;5.928;2022-07-29T01:55:50;4.05;;;1.70;;
66946;SDS011;53853;51.982;5.928;2022-07-29T01:58:21;3.47;;;1.50;;
66946;SDS011;53853;51.982;5.928;2022-07-29T02:00:55;3.47;;;1.23;;
66946;SDS011;53853;51.982;5.928;2022-07-29T02:03:28;5.10;;;1.80;;
66946;SDS011;53853;51.982;5.928;2022-07-29T02:06:00;3.53;;;1.30;;
66946;SDS011;53853;51.982;5.928;2022-07-29T02:08:33;2.40;;;1.00;;
66946;SDS011;53853;51.982;5.928;2022-07-29T02:11:05;5.53;;;1.58;;
66946;SDS011;53853;51.982;5.928;2022-07-29T02:13:37;3.15;;;1.35;;
66946;SDS011;53853;51.982;5.928;2022-07-29T02:16:12;3.45;;;1.90;;
66946;SDS011;53853;51.982;5.928;2022-07-29T02:18:43;3.40;;;1.30;;
66946;SDS011;53853;51.982;5.928;2022-07-29T02:21:16;4.90;;;1.67;;
66946;SDS011;53853;51.982;5.928;2022-07-29T02:23:51;1.85;;;1.08;;
66946;SDS011;53853;51.982;5.928;2022-07-29T02:26:23;4.70;;;1.38;;
66946;SDS011;53853;51.982;5.928;2022-07-29T02:28:54;4.22;;;1.52;;
66946;SDS011;53853;51.982;5.928;2022-07-29T02:31:28;2.95;;;1.48;;
66946;SDS011;53853;51.982;5.928;2022-07-29T02:34:02;5.60;;;1.35;;
66946;SDS011;53853;51.982;5.928;2022-07-29T02:36:35;4.35;;;1.67;;
66946;SDS011;53853;51.982;5.928;2022-07-29T02:39:06;3.60;;;1.80;;
66946;SDS011;53853;51.982;5.928;2022-07-29T02:41:40;4.93;;;1.85;;
66946;SDS011;53853;51.982;5.928;2022-07-29T02:44:13;2.95;;;1.38;;
66946;SDS011;53853;51.982;5.928;2022-07-29T02:46:49;2.42;;;1.60;;
66946;SDS011;53853;51.982;5.928;2022-07-29T02:49:25;3.28;;;1.42;;
66946;SDS011;53853;51.982;5.928;2022-07-29T02:52:02;3.53;;;1.70;;
66946;SDS011;53853;51.982;5.928;2022-07-29T02:54:38;3.55;;;1.63;;
66946;SDS011;53853;51.982;5.928;2022-07-29T02:57:14;6.00;;;1.67;;
66946;SDS011;53853;51.982;5.928;2022-07-29T02:59:49;4.80;;;2.00;;
66946;SDS011;53853;51.982;5.928;2022-07-29T03:02:24;5.68;;;2.47;;
66946;SDS011;53853;51.982;5.928;2022-07-29T03:04:55;3.00;;;1.60;;
66946;SDS011;53853;51.982;5.928;2022-07-29T03:07:27;1.92;;;1.10;;
66946;SDS011;53853;51.982;5.928;2022-07-29T03:09:58;3.63;;;1.73;;
66946;SDS011;53853;51.982;5.928;2022-07-29T03:12:28;2.97;;;1.90;;
66946;SDS011;53853;51.982;5.928;2022-07-29T03:14:59;3.45;;;1.85;;
66946;SDS011;53853;51.982;5.928;2022-07-29T03:17:33;4.10;;;2.22;;
66946;SDS011;53853;51.982;5.928;2022-07-29T03:20:04;2.83;;;1.95;;
66946;SDS011;53853;51.982;5.928;2022-07-29T03:22:38;3.25;;;1.60;;
66946;SDS011;53853;51.982;5.928;2022-07-29T03:25:12;3.20;;;1.52;;
66946;SDS011;53853;51.982;5.928;2022-07-29T03:27:44;6.38;;;2.60;;
66946;SDS011;53853;51.982;5.928;2022-07-29T03:30:15;3.65;;;2.20;;
66946;SDS011;53853;51.982;5.928;2022-07-29T03:32:48;3.22;;;1.83;;
66946;SDS011;53853;51.982;5.928;2022-07-29T03:35:18;3.83;;;2.10;;
66946;SDS011;53853;51.982;5.928;2022-07-29T03:37:48;4.22;;;2.00;;
66946;SDS011;53853;51.982;5.928;2022-07-29T03:40:19;4.65;;;2.40;;
66946;SDS011;53853;51.982;5.928;2022-07-29T03:42:54;2.88;;;2.10;;
66946;SDS011;53853;51.982;5.928;2022-07-29T03:45:25;2.83;;;1.92;;
66946;SDS011;53853;51.982;5.928;2022-07-29T03:48:00;3.35;;;1.90;;
66946;SDS011;53853;51.982;5.928;2022-07-29T03:50:34;4.18;;;2.55;;
66946;SDS011;53853;51.982;5.928;2022-07-29T03:53:04;3.30;;;2.08;;
66946;SDS011;53853;51.982;5.928;2022-07-29T03:55:37;6.65;;;3.05;;
66946;SDS011;53853;51.982;5.928;2022-07-29T03:58:11;4.68;;;2.45;;
66946;SDS011;53853;51.982;5.928;2022-07-29T04:00:43;4.13;;;2.20;;
66946;SDS011;53853;51.982;5.928;2022-07-29T04:03:16;2.70;;;1.55;;
66946;SDS011;53853;51.982;5.928;2022-07-29T04:05:56;3.33;;;2.20;;
66946;SDS011;53853;51.982;5.928;2022-07-29T04:08:27;3.83;;;2.25;;
66946;SDS011;53853;51.982;5.928;2022-07-29T04:10:57;4.93;;;2.55;;
66946;SDS011;53853;51.982;5.928;2022-07-29T04:13:27;5.95;;;2.58;;
66946;SDS011;53853;51.982;5.928;2022-07-29T04:15:58;3.42;;;1.98;;
66946;SDS011;53853;51.982;5.928;2022-07-29T04:18:31;4.13;;;2.28;;
66946;SDS011;53853;51.982;5.928;2022-07-29T04:21:00;6.22;;;2.88;;
66946;SDS011;53853;51.982;5.928;2022-07-29T04:23:30;5.18;;;2.40;;
66946;SDS011;53853;51.982;5.928;2022-07-29T04:26:00;3.53;;;2.20;;
66946;SDS011;53853;51.982;5.928;2022-07-29T04:28:30;3.33;;;2.50;;
66946;SDS011;53853;51.982;5.928;2022-07-29T04:31:00;5.47;;;4.07;;
66946;SDS011;53853;51.982;5.928;2022-07-29T04:33:32;5.03;;;3.00;;
66946;SDS011;53853;51.982;5.928;2022-07-29T04:36:02;4.68;;;2.63;;
66946;SDS011;53853;51.982;5.928;2022-07-29T04:38:33;4.03;;;2.13;;
66946;SDS011;53853;51.982;5.928;2022-07-29T04:41:03;4.32;;;2.83;;
66946;SDS011;53853;51.982;5.928;2022-07-29T04:43:34;4.50;;;2.65;;
66946;SDS011;53853;51.982;5.928;2022-07-29T04:46:05;5.30;;;2.65;;
66946;SDS011;53853;51.982;5.928;2022-07-29T04:48:38;3.63;;;2.53;;
66946;SDS011;53853;51.982;5.928;2022-07-29T04:51:08;5.68;;;2.70;;
66946;SDS011;53853;51.982;5.928;2022-07-29T04:53:38;5.88;;;2.97;;
66946;SDS011;53853;51.982;5.928;2022-07-29T04:56:07;7.18;;;2.97;;
66946;SDS011;53853;51.982;5.928;2022-07-29T04:58:37;3.95;;;2.20;;
66946;SDS011;53853;51.982;5.928;2022-07-29T05:01:07;3.85;;;2.30;;
66946;SDS011;53853;51.982;5.928;2022-07-29T05:03:40;6.28;;;2.80;;
66946;SDS011;53853;51.982;5.928;2022-07-29T05:06:10;5.35;;;2.78;;
66946;SDS011;53853;51.982;5.928;2022-07-29T05:08:40;6.95;;;3.22;;
66946;SDS011;53853;51.982;5.928;2022-07-29T05:11:10;4.57;;;2.60;;
66946;SDS011;53853;51.982;5.928;2022-07-29T05:13:40;4.97;;;2.88;;
66946;SDS011;53853;51.982;5.928;2022-07-29T05:16:10;4.25;;;2.50;;
66946;SDS011;53853;51.982;5.928;2022-07-29T05:18:43;3.25;;;2.40;;
66946;SDS011;53853;51.982;5.928;2022-07-29T05:21:13;3.85;;;2.10;;
66946;SDS011;53853;51.982;5.928;2022-07-29T05:23:42;4.10;;;2.72;;
66946;SDS011;53853;51.982;5.928;2022-07-29T05:26:12;7.55;;;2.65;;
66946;SDS011;53853;51.982;5.928;2022-07-29T05:28:42;3.80;;;2.33;;
66946;SDS011;53853;51.982;5.928;2022-07-29T05:31:12;5.07;;;2.97;;
66946;SDS011;53853;51.982;5.928;2022-07-29T05:33:44;3.10;;;2.22;;
66946;SDS011;53853;51.982;5.928;2022-07-29T05:36:14;4.70;;;2.53;;
66946;SDS011;53853;51.982;5.928;2022-07-29T05:38:44;3.10;;;2.20;;
66946;SDS011;53853;51.982;5.928;2022-07-29T05:41:14;3.72;;;1.70;;
66946;SDS011;53853;51.982;5.928;2022-07-29T05:43:44;3.38;;;2.03;;
66946;SDS011;53853;51.982;5.928;2022-07-29T05:46:14;5.05;;;2.47;;
66946;SDS011;53853;51.982;5.928;2022-07-29T05:48:47;3.67;;;2.63;;
66946;SDS011;53853;51.982;5.928;2022-07-29T05:51:17;4.32;;;2.63;;
66946;SDS011;53853;51.982;5.928;2022-07-29T05:53:47;6.88;;;2.95;;
66946;SDS011;53853;51.982;5.928;2022-07-29T05:56:17;3.67;;;2.15;;
66946;SDS011;53853;51.982;5.928;2022-07-29T05:58:47;4.78;;;2.30;;
66946;SDS011;53853;51.982;5.928;2022-07-29T06:01:17;3.78;;;2.60;;
66946;SDS011;53853;51.982;5.928;2022-07-29T06:03:49;7.05;;;2.92;;
66946;SDS011;53853;51.982;5.928;2022-07-29T06:06:19;5.82;;;2.28;;
66946;SDS011;53853;51.982;5.928;2022-07-29T06:08:49;4.75;;;2.30;;
66946;SDS011;53853;51.982;5.928;2022-07-29T06:11:19;5.00;;;2.42;;
66946;SDS011;53853;51.982;5.928;2022-07-29T06:13:48;3.58;;;2.25;;
66946;SDS011;53853;51.982;5.928;2022-07-29T06:16:18;4.32;;;2.60;;
66946;SDS011;53853;51.982;5.928;2022-07-29T06:18:51;4.00;;;2.42;;
66946;SDS011;53853;51.982;5.928;2022-07-29T06:21:21;7.18;;;2.55;;
66946;SDS011;53853;51.982;5.928;2022-07-29T06:23:50;3.58;;;1.85;;
66946;SDS011;53853;51.982;5.928;2022-07-29T06:26:20;3.35;;;1.90;;
66946;SDS011;53853;51.982;5.928;2022-07-29T06:28:50;4.90;;;1.95;;
66946;SDS011;53853;51.982;5.928;2022-07-29T06:31:20;3.05;;;1.92;;
66946;SDS011;53853;51.982;5.928;2022-07-29T06:33:52;4.18;;;2.17;;
66946;SDS011;53853;51.982;5.928;2022-07-29T06:36:22;3.42;;;1.98;;
66946;SDS011;53853;51.982;5.928;2022-07-29T06:38:52;5.45;;;2.50;;
66946;SDS011;53853;51.982;5.928;2022-07-29T06:41:22;4.97;;;2.22;;
66946;SDS011;53853;51.982;5.928;2022-07-29T06:43:52;4.72;;;2.47;;
66946;SDS011;53853;51.982;5.928;2022-07-29T06:46:22;2.83;;;1.70;;
66946;SDS011;53853;51.982;5.928;2022-07-29T06:48:54;5.53;;;2.75;;
66946;SDS011;53853;51.982;5.928;2022-07-29T06:51:24;4.38;;;2.17;;
66946;SDS011;53853;51.982;5.928;2022-07-29T06:53:54;3.85;;;1.80;;
66946;SDS011;53853;51.982;5.928;2022-07-29T06:56:24;7.20;;;2.28;;
66946;SDS011;53853;51.982;5.928;2022-07-29T06:58:54;4.00;;;2.35;;
66946;SDS011;53853;51.982;5.928;2022-07-29T07:01:24;3.75;;;2.13;;
66946;SDS011;53853;51.982;5.928;2022-07-29T07:03:56;4.40;;;1.80;;
66946;SDS011;53853;51.982;5.928;2022-07-29T07:06:26;3.20;;;1.75;;
66946;SDS011;53853;51.982;5.928;2022-07-29T07:08:56;3.88;;;2.40;;
66946;SDS011;53853;51.982;5.928;2022-07-29T07:11:26;5.60;;;1.98;;
66946;SDS011;53853;51.982;5.928;2022-07-29T07:13:56;4.32;;;2.22;;
66946;SDS011;53853;51.982;5.928;2022-07-29T07:16:26;5.63;;;2.63;;
66946;SDS011;53853;51.982;5.928;2022-07-29T07:18:59;4.53;;;2.00;;
66946;SDS011;53853;51.982;5.928;2022-07-29T07:21:29;4.32;;;2.25;;
66946;SDS011;53853;51.982;5.928;2022-07-29T07:23:59;4.55;;;1.70;;
66946;SDS011;53853;51.982;5.928;2022-07-29T07:26:29;3.33;;;1.85;;
66946;SDS011;53853;51.982;5.928;2022-07-29T07:28:59;3.05;;;1.50;;
66946;SDS011;53853;51.982;5.928;2022-07-29T07:31:28;6.07;;;2.15;;
66946;SDS011;53853;51.982;5.928;2022-07-29T07:34:01;3.35;;;2.10;;
66946;SDS011;53853;51.982;5.928;2022-07-29T07:36:31;4.55;;;2.20;;
66946;SDS011;53853;51.982;5.928;2022-07-29T07:39:01;2.78;;;2.03;;
66946;SDS011;53853;51.982;5.928;2022-07-29T07:41:31;3.55;;;2.15;;
66946;SDS011;53853;51.982;5.928;2022-07-29T07:44:01;2.70;;;1.77;;
66946;SDS011;53853;51.982;5.928;2022-07-29T07:46:31;4.80;;;2.00;;
66946;SDS011;53853;51.982;5.928;2022-07-29T07:49:04;3.92;;;2.55;;
66946;SDS011;53853;51.982;5.928;2022-07-29T07:51:34;7.00;;;2.30;;
66946;SDS011;53853;51.982;5.928;2022-07-29T07:54:04;3.97;;;2.15;;
66946;SDS011;53853;51.982;5.928;2022-07-29T07:56:34;5.00;;;2.30;;
66946;SDS011;53853;51.982;5.928;2022-07-29T07:59:04;5.28;;;2.00;;
66946;SDS011;53853;51.982;5.928;2022-07-29T08:01:33;4.65;;;1.80;;
66946;SDS011;53853;51.982;5.928;2022-07-29T08:04:06;4.57;;;2.05;;
66946;SDS011;53853;51.982;5.928;2022-07-29T08:06:36;3.88;;;1.77;;
66946;SDS011;53853;51.982;5.928;2022-07-29T08:09:06;5.43;;;1.85;;
66946;SDS011;53853;51.982;5.928;2022-07-29T08:11:36;3.70;;;2.10;;
66946;SDS011;53853;51.982;5.928;2022-07-29T08:14:06;3.45;;;2.40;;
66946;SDS011;53853;51.982;5.928;2022-07-29T08:16:36;5.68;;;1.70;;
66946;SDS011;53853;51.982;5.928;2022-07-29T08:19:08;3.50;;;1.98;;
66946;SDS011;53853;51.982;5.928;2022-07-29T08:21:38;4.30;;;1.90;;
66946;SDS011;53853;51.982;5.928;2022-07-29T08:24:08;3.72;;;2.10;;
66946;SDS011;53853;51.982;5.928;2022-07-29T08:26:51;7.60;;;2.20;;
66946;SDS011;53853;51.982;5.928;2022-07-29T08:29:20;3.80;;;1.90;;
66946;SDS011;53853;51.982;5.928;2022-07-29T08:31:50;4.20;;;2.20;;
66946;SDS011;53853;51.982;5.928;2022-07-29T08:34:23;6.22;;;2.50;;
66946;SDS011;53853;51.982;5.928;2022-07-29T08:36:54;4.32;;;2.22;;
66946;SDS011;53853;51.982;5.928;2022-07-29T08:39:24;3.85;;;2.15;;
66946;SDS011;53853;51.982;5.928;2022-07-29T08:41:54;6.15;;;2.78;;
66946;SDS011;53853;51.982;5.928;2022-07-29T08:44:24;6.35;;;2.70;;
66946;SDS011;53853;51.982;5.928;2022-07-29T08:46:54;4.35;;;1.70;;
66946;SDS011;53853;51.982;5.928;2022-07-29T08:49:26;5.97;;;2.28;;
66946;SDS011;53853;51.982;5.928;2022-07-29T08:51:57;3.15;;;1.92;;
66946;SDS011;53853;51.982;5.928;2022-07-29T08:54:28;3.28;;;2.10;;
66946;SDS011;53853;51.982;5.928;2022-07-29T08:56:58;5.03;;;1.80;;
66946;SDS011;53853;51.982;5.928;2022-07-29T08:59:29;3.78;;;2.05;;
66946;SDS011;53853;51.982;5.928;2022-07-29T09:02:02;3.75;;;2.10;;
66946;SDS011;53853;51.982;5.928;2022-07-29T09:04:36;3.75;;;2.25;;
66946;SDS011;53853;51.982;5.928;2022-07-29T09:07:06;4.20;;;2.33;;
66946;SDS011;53853;51.982;5.928;2022-07-29T09:09:37;3.83;;;1.85;;
66946;SDS011;53853;51.982;5.928;2022-07-29T09:12:08;2.20;;;1.50;;
66946;SDS011;53853;51.982;5.928;2022-07-29T09:14:39;3.58;;;2.00;;
66946;SDS011;53853;51.982;5.928;2022-07-29T09:17:09;2.65;;;1.73;;
66946;SDS011;53853;51.982;5.928;2022-07-29T09:19:43;3.75;;;2.05;;
66946;SDS011;53853;51.982;5.928;2022-07-29T09:22:13;3.28;;;1.70;;
66946;SDS011;53853;51.982;5.928;2022-07-29T09:24:59;5.28;;;2.03;;
66946;SDS011;53853;51.982;5.928;2022-07-29T09:27:29;4.78;;;2.30;;
66946;SDS011;53853;51.982;5.928;2022-07-29T09:30:00;3.42;;;2.08;;
66946;SDS011;53853;51.982;5.928;2022-07-29T09:32:32;5.30;;;2.03;;
66946;SDS011;53853;51.982;5.928;2022-07-29T09:35:25;3.83;;;1.77;;
66946;SDS011;53853;51.982;5.928;2022-07-29T09:40:26;2.28;;;1.20;;
66946;SDS011;53853;51.982;5.928;2022-07-29T09:42:56;3.50;;;1.65;;
66946;SDS011;53853;51.982;5.928;2022-07-29T09:45:27;4.15;;;1.98;;
66946;SDS011;53853;51.982;5.928;2022-07-29T09:47:58;2.83;;;1.52;;
66946;SDS011;53853;51.982;5.928;2022-07-29T09:50:43;4.00;;;2.08;;
66946;SDS011;53853;51.982;5.928;2022-07-29T09:53:29;3.13;;;1.70;;
66946;SDS011;53853;51.982;5.928;2022-07-29T09:56:00;4.13;;;2.17;;
66946;SDS011;53853;51.982;5.928;2022-07-29T09:58:31;4.10;;;1.90;;
66946;SDS011;53853;51.982;5.928;2022-07-29T10:01:01;3.30;;;2.05;;
66946;SDS011;53853;51.982;5.928;2022-07-29T10:03:31;3.38;;;2.05;;
66946;SDS011;53853;51.982;5.928;2022-07-29T10:06:20;5.72;;;2.45;;
66946;SDS011;53853;51.982;5.928;2022-07-29T10:08:50;6.18;;;2.38;;
66946;SDS011;53853;51.982;5.928;2022-07-29T10:11:20;3.35;;;1.92;;
66946;SDS011;53853;51.982;5.928;2022-07-29T10:13:51;4.15;;;1.63;;
66946;SDS011;53853;51.982;5.928;2022-07-29T10:16:21;4.72;;;2.22;;
66946;SDS011;53853;51.982;5.928;2022-07-29T10:18:52;5.45;;;2.22;;
66946;SDS011;53853;51.982;5.928;2022-07-29T10:21:26;3.88;;;2.05;;
66946;SDS011;53853;51.982;5.928;2022-07-29T10:23:58;7.35;;;2.72;;
66946;SDS011;53853;51.982;5.928;2022-07-29T10:26:29;8.38;;;3.60;;
66946;SDS011;53853;51.982;5.928;2022-07-29T10:29:00;3.85;;;2.90;;
66946;SDS011;53853;51.982;5.928;2022-07-29T10:31:34;3.72;;;2.92;;
66946;SDS011;53853;51.982;5.928;2022-07-29T10:34:12;5.68;;;2.97;;
66946;SDS011;53853;51.982;5.928;2022-07-29T10:36:53;6.80;;;2.25;;
66946;SDS011;53853;51.982;5.928;2022-07-29T10:39:33;5.28;;;2.30;;
66946;SDS011;53853;51.982;5.928;2022-07-29T10:42:17;6.53;;;3.65;;
66946;SDS011;53853;51.982;5.928;2022-07-29T10:44:50;3.03;;;2.15;;
66946;SDS011;53853;51.982;5.928;2022-07-29T10:47:21;4.28;;;1.60;;
66946;SDS011;53853;51.982;5.928;2022-07-29T10:49:59;4.95;;;2.10;;
66946;SDS011;53853;51.982;5.928;2022-07-29T10:58:15;3.97;;;2.75;;
66946;SDS011;53853;51.982;5.928;2022-07-29T11:00:46;4.20;;;2.17;;
66946;SDS011;53853;51.982;5.928;2022-07-29T11:06:13;8.65;;;3.90;;
66946;SDS011;53853;51.982;5.928;2022-07-29T11:08:46;4.65;;;2.28;;
66946;SDS011;53853;51.982;5.928;2022-07-29T11:11:45;8.05;;;5.57;;
66946;SDS011;53853;51.982;5.928;2022-07-29T11:14:15;5.78;;;3.08;;
66946;SDS011;53853;51.982;5.928;2022-07-29T11:16:59;5.88;;;2.30;;
66946;SDS011;53853;51.982;5.928;2022-07-29T11:19:34;4.45;;;3.13;;
66946;SDS011;53853;51.982;5.928;2022-07-29T11:24:40;4.13;;;2.20;;
66946;SDS011;53853;51.982;5.928;2022-07-29T11:27:11;3.65;;;1.88;;
66946;SDS011;53853;51.982;5.928;2022-07-29T11:29:49;4.70;;;2.30;;
66946;SDS011;53853;51.982;5.928;2022-07-29T11:32:21;3.90;;;2.28;;
66946;SDS011;53853;51.982;5.928;2022-07-29T11:37:43;8.48;;;2.35;;
66946;SDS011;53853;51.982;5.928;2022-07-29T11:40:16;4.22;;;2.70;;
66946;SDS011;53853;51.982;5.928;2022-07-29T11:42:50;4.15;;;2.17;;
66946;SDS011;53853;51.982;5.928;2022-07-29T11:45:26;6.63;;;3.05;;
66946;SDS011;53853;51.982;5.928;2022-07-29T11:48:15;3.88;;;2.40;;
66946;SDS011;53853;51.982;5.928;2022-07-29T11:50:46;3.35;;;1.95;;
66946;SDS011;53853;51.982;5.928;2022-07-29T11:53:16;4.10;;;2.22;;
66946;SDS011;53853;51.982;5.928;2022-07-29T11:55:49;4.43;;;1.90;;
66946;SDS011;53853;51.982;5.928;2022-07-29T11:58:24;3.80;;;2.00;;
66946;SDS011;53853;51.982;5.928;2022-07-29T12:00:55;3.08;;;1.42;;
66946;SDS011;53853;51.982;5.928;2022-07-29T12:03:27;3.88;;;1.60;;
66946;SDS011;53853;51.982;5.928;2022-07-29T12:05:57;3.95;;;1.60;;
66946;SDS011;53853;51.982;5.928;2022-07-29T12:08:27;3.50;;;1.75;;
66946;SDS011;53853;51.982;5.928;2022-07-29T12:11:00;4.15;;;1.75;;
66946;SDS011;53853;51.982;5.928;2022-07-29T12:13:30;4.20;;;2.20;;
66946;SDS011;53853;51.982;5.928;2022-07-29T12:16:07;6.47;;;2.42;;
66946;SDS011;53853;51.982;5.928;2022-07-29T12:18:37;3.38;;;1.80;;
66946;SDS011;53853;51.982;5.928;2022-07-29T12:21:07;3.05;;;1.65;;
66946;SDS011;53853;51.982;5.928;2022-07-29T12:23:37;6.72;;;2.63;;
66946;SDS011;53853;51.982;5.928;2022-07-29T12:26:09;3.13;;;1.55;;
66946;SDS011;53853;51.982;5.928;2022-07-29T12:28:39;4.75;;;1.90;;
66946;SDS011;53853;51.982;5.928;2022-07-29T12:31:12;7.65;;;2.55;;
66946;SDS011;53853;51.982;5.928;2022-07-29T12:33:43;4.03;;;2.13;;
66946;SDS011;53853;51.982;5.928;2022-07-29T12:36:21;3.67;;;1.77;;
66946;SDS011;53853;51.982;5.928;2022-07-29T12:38:51;1.98;;;1.15;;
66946;SDS011;53853;51.982;5.928;2022-07-29T12:41:25;4.30;;;1.92;;
66946;SDS011;53853;51.982;5.928;2022-07-29T12:43:57;4.85;;;2.00;;
66946;SDS011;53853;51.982;5.928;2022-07-29T12:46:27;4.93;;;2.15;;
66946;SDS011;53853;51.982;5.928;2022-07-29T12:48:57;4.00;;;1.80;;
66946;SDS011;53853;51.982;5.928;2022-07-29T12:51:29;3.75;;;2.10;;
66946;SDS011;53853;51.982;5.928;2022-07-29T12:54:03;3.20;;;1.88;;
66946;SDS011;53853;51.982;5.928;2022-07-29T12:56:38;4.05;;;1.70;;
66946;SDS011;53853;51.982;5.928;2022-07-29T12:59:13;4.90;;;2.22;;
66946;SDS011;53853;51.982;5.928;2022-07-29T13:01:44;4.57;;;1.45;;
66946;SDS011;53853;51.982;5.928;2022-07-29T13:04:23;3.35;;;1.63;;
66946;SDS011;53853;51.982;5.928;2022-07-29T13:06:58;5.95;;;1.98;;
66946;SDS011;53853;51.982;5.928;2022-07-29T13:09:36;4.72;;;1.70;;
66946;SDS011;53853;51.982;5.928;2022-07-29T13:12:13;2.15;;;1.23;;
66946;SDS011;53853;51.982;5.928;2022-07-29T13:14:44;5.05;;;2.40;;
66946;SDS011;53853;51.982;5.928;2022-07-29T13:17:16;3.00;;;1.52;;
66946;SDS011;53853;51.982;5.928;2022-07-29T13:19:49;1.73;;;1.08;;
66946;SDS011;53853;51.982;5.928;2022-07-29T13:22:23;4.30;;;1.65;;
66946;SDS011;53853;51.982;5.928;2022-07-29T13:24:55;2.70;;;1.33;;
66946;SDS011;53853;51.982;5.928;2022-07-29T13:27:31;2.97;;;1.30;;
66946;SDS011;53853;51.982;5.928;2022-07-29T13:30:03;3.90;;;1.40;;
66946;SDS011;53853;51.982;5.928;2022-07-29T13:32:35;2.83;;;1.40;;
66946;SDS011;53853;51.982;5.928;2022-07-29T13:35:06;4.97;;;1.77;;
66946;SDS011;53853;51.982;5.928;2022-07-29T13:37:37;3.38;;;1.83;;
66946;SDS011;53853;51.982;5.928;2022-07-29T13:40:07;3.97;;;1.75;;
66946;SDS011;53853;51.982;5.928;2022-07-29T13:42:42;2.10;;;1.20;;
66946;SDS011;53853;51.982;5.928;2022-07-29T13:45:12;3.33;;;1.73;;
66946;SDS011;53853;51.982;5.928;2022-07-29T13:47:42;2.63;;;1.30;;
66946;SDS011;53853;51.982;5.928;2022-07-29T13:50:11;3.95;;;1.40;;
66946;SDS011;53853;51.982;5.928;2022-07-29T13:52:41;3.00;;;1.63;;
66946;SDS011;53853;51.982;5.928;2022-07-29T13:55:13;3.72;;;1.70;;
66946;SDS011;53853;51.982;5.928;2022-07-29T13:57:46;5.75;;;1.67;;
66946;SDS011;53853;51.982;5.928;2022-07-29T14:00:16;3.57;;;1.80;;
66946;SDS011;53853;51.982;5.928;2022-07-29T14:02:49;5.90;;;1.88;;
66946;SDS011;53853;51.982;5.928;2022-07-29T14:05:19;3.90;;;1.63;;
66946;SDS011;53853;51.982;5.928;2022-07-29T14:07:49;3.20;;;1.50;;
66946;SDS011;53853;51.982;5.928;2022-07-29T14:10:18;2.17;;;1.23;;
66946;SDS011;53853;51.982;5.928;2022-07-29T14:12:51;3.08;;;1.17;;
66946;SDS011;53853;51.982;5.928;2022-07-29T14:15:23;3.42;;;1.48;;
66946;SDS011;53853;51.982;5.928;2022-07-29T14:17:53;3.95;;;1.90;;
66946;SDS011;53853;51.982;5.928;2022-07-29T14:20:23;4.35;;;1.55;;
66946;SDS011;53853;51.982;5.928;2022-07-29T14:22:55;4.00;;;1.77;;
66946;SDS011;53853;51.982;5.928;2022-07-29T14:25:25;4.10;;;1.77;;
66946;SDS011;53853;51.982;5.928;2022-07-29T14:27:57;2.83;;;1.30;;
66946;SDS011;53853;51.982;5.928;2022-07-29T14:30:27;3.88;;;1.50;;
66946;SDS011;53853;51.982;5.928;2022-07-29T14:32:57;2.40;;;1.67;;
66946;SDS011;53853;51.982;5.928;2022-07-29T14:35:27;2.35;;;1.17;;
66946;SDS011;53853;51.982;5.928;2022-07-29T14:37:58;5.50;;;1.42;;
66946;SDS011;53853;51.982;5.928;2022-07-29T14:40:28;3.92;;;1.52;;
66946;SDS011;53853;51.982;5.928;2022-07-29T14:43:01;3.17;;;1.70;;
66946;SDS011;53853;51.982;5.928;2022-07-29T14:45:31;4.07;;;1.42;;
66946;SDS011;53853;51.982;5.928;2022-07-29T14:48:00;2.28;;;1.30;;
66946;SDS011;53853;51.982;5.928;2022-07-29T14:50:30;2.70;;;1.30;;
66946;SDS011;53853;51.982;5.928;2022-07-29T14:53:00;2.08;;;1.13;;
66946;SDS011;53853;51.982;5.928;2022-07-29T14:55:30;4.60;;;2.20;;
66946;SDS011;53853;51.982;5.928;2022-07-29T14:58:03;3.55;;;1.63;;
66946;SDS011;53853;51.982;5.928;2022-07-29T15:00:33;2.90;;;1.50;;
66946;SDS011;53853;51.982;5.928;2022-07-29T15:03:03;3.83;;;1.67;;
66946;SDS011;53853;51.982;5.928;2022-07-29T15:05:35;5.60;;;2.00;;
66946;SDS011;53853;51.982;5.928;2022-07-29T15:08:05;3.72;;;1.30;;
66946;SDS011;53853;51.982;5.928;2022-07-29T15:10:36;3.83;;;1.52;;
66946;SDS011;53853;51.982;5.928;2022-07-29T15:13:08;3.83;;;1.65;;
66946;SDS011;53853;51.982;5.928;2022-07-29T15:15:38;3.17;;;1.37;;
66946;SDS011;53853;51.982;5.928;2022-07-29T15:18:08;3.70;;;1.70;;
66946;SDS011;53853;51.982;5.928;2022-07-29T15:20:38;2.67;;;1.50;;
66946;SDS011;53853;51.982;5.928;2022-07-29T15:23:08;3.47;;;1.50;;
66946;SDS011;53853;51.982;5.928;2022-07-29T15:25:41;4.78;;;1.70;;
66946;SDS011;53853;51.982;5.928;2022-07-29T15:28:16;2.28;;;1.13;;
66946;SDS011;53853;51.982;5.928;2022-07-29T15:30:46;2.15;;;1.08;;
66946;SDS011;53853;51.982;5.928;2022-07-29T15:33:16;1.70;;;1.00;;